Map

Track Data

SID SEASON NUMBER BASIN SUBBASIN NAME ISO_TIME NATURE LAT LON WMO_WIND WMO_PRES WMO_AGENCY TRACK_TYPE DIST2LAND LANDFALL IFLAG USA_AGENCY USA_ATCF_ID USA_LAT USA_LON USA_RECORD USA_STATUS USA_WIND USA_PRES USA_SSHS USA_R34_NE USA_R34_SE USA_R34_SW USA_R34_NW USA_R50_NE USA_R50_SE USA_R50_SW USA_R50_NW USA_R64_NE USA_R64_SE USA_R64_SW USA_R64_NW USA_POCI USA_ROCI USA_RMW USA_EYE TOKYO_LAT TOKYO_LON TOKYO_GRADE TOKYO_WIND TOKYO_PRES TOKYO_R50_DIR TOKYO_R50_LONG TOKYO_R50_SHORT TOKYO_R30_DIR TOKYO_R30_LONG TOKYO_R30_SHORT TOKYO_LAND CMA_LAT CMA_LON CMA_CAT CMA_WIND CMA_PRES HKO_LAT HKO_LON HKO_CAT HKO_WIND HKO_PRES NEWDELHI_LAT NEWDELHI_LON NEWDELHI_GRADE NEWDELHI_WIND NEWDELHI_PRES NEWDELHI_CI NEWDELHI_DP NEWDELHI_POCI REUNION_LAT REUNION_LON REUNION_TYPE REUNION_WIND REUNION_PRES REUNION_TNUM REUNION_CI REUNION_RMW REUNION_R34_NE REUNION_R34_SE REUNION_R34_SW REUNION_R34_NW REUNION_R50_NE REUNION_R50_SE REUNION_R50_SW REUNION_R50_NW REUNION_R64_NE REUNION_R64_SE REUNION_R64_SW REUNION_R64_NW BOM_LAT BOM_LON BOM_TYPE BOM_WIND BOM_PRES BOM_TNUM BOM_CI BOM_RMW BOM_R34_NE BOM_R34_SE BOM_R34_SW BOM_R34_NW BOM_R50_NE BOM_R50_SE BOM_R50_SW BOM_R50_NW BOM_R64_NE BOM_R64_SE BOM_R64_SW BOM_R64_NW BOM_ROCI BOM_POCI BOM_EYE BOM_POS_METHOD BOM_PRES_METHOD NADI_LAT NADI_LON NADI_CAT NADI_WIND NADI_PRES WELLINGTON_LAT WELLINGTON_LON WELLINGTON_WIND WELLINGTON_PRES DS824_LAT DS824_LON DS824_STAGE DS824_WIND DS824_PRES TD9636_LAT TD9636_LON TD9636_STAGE TD9636_WIND TD9636_PRES TD9635_LAT TD9635_LON TD9635_WIND TD9635_PRES TD9635_ROCI NEUMANN_LAT NEUMANN_LON NEUMANN_CLASS NEUMANN_WIND NEUMANN_PRES MLC_LAT MLC_LON MLC_CLASS MLC_WIND MLC_PRES USA_GUST BOM_GUST BOM_GUST_PER REUNION_GUST REUNION_GUST_PER USA_SEAHGT USA_SEARAD_NE USA_SEARAD_SE USA_SEARAD_SW USA_SEARAD_NW STORM_SPEED STORM_DIR
1976020S18165 1976 7 SP MM ELSA 1976-01-20 00:00:00 TS -17.9000 165.000 main 273 257 O________OO___ jtwc_sh SH121976 -17.9000 165.000 -1 -17.9000 165.000 TC -17.9000 165.000 2 11 14
1976020S18165 1976 7 SP MM ELSA 1976-01-20 03:00:00 TS -17.3481 165.144 main 251 202 P________PP___ SH121976 -17.3425 165.123 -1 -17.3425 165.123 TC -17.3593 165.186 2 11 16
1976020S18165 1976 7 SP MM ELSA 1976-01-20 06:00:00 TS -16.8083 165.329 main 202 144 O________OP___ jtwc_sh SH121976 -16.8000 165.300 -1 -16.8000 165.300 TC -16.8248 165.388 2 11 22
1976020S18165 1976 7 SP MM ELSA 1976-01-20 09:00:00 TS -16.2910 165.587 main 144 102 P________PP___ SH121976 -16.2850 165.570 -1 -16.2850 165.570 TC -16.3029 165.620 2 11 26
1976020S18165 1976 7 SP MM ELSA 1976-01-20 12:00:00 TS -15.8308 165.831 main 96 53 O________OO_O_ jtwc_sh SH121976 -15.8000 165.900 -1 -15.8000 165.900 TC -15.8000 165.900 2 -16.2000 165.000 TC 15 1007 11 29
1976020S18165 1976 7 SP MM ELSA 1976-01-20 15:00:00 TS -15.3775 166.123 main 53 10 P________PP_P_ SH121976 -15.3199 166.235 -1 -15.3199 166.235 TC -15.3252 166.236 2 -15.7123 165.447 TC 25 1002 11 36
1976020S18165 1976 7 SP MM ELSA 1976-01-20 18:00:00 TS -14.9601 166.483 main 10 0 O________OP_O_ jtwc_sh SH121976 -14.9000 166.600 -1 -14.9000 166.600 TC -14.9003 166.613 2 -15.2000 166.000 TC 35 997 11 44
1976020S18165 1976 7 SP MM ELSA 1976-01-20 21:00:00 TS -14.5839 166.929 main 31 31 P________PP_P_ SH121976 -14.5550 167.000 -1 -14.5550 167.000 TC -14.5502 167.008 2 -14.6753 166.708 TC 37 996 11 53
1976020S18165 1976 7 SP MM ELSA 1976-01-21 00:00:00 TS -14.2941 167.406 40 990 wellington main 84 84 O_______OOO_O_ jtwc_sh SH121976 -14.3000 167.400 -1 -14.2000 167.500 40 990 -14.3000 167.400 TC -14.3000 167.400 2 -14.3000 167.400 TC 40 995 10 63
1976020S18165 1976 7 SP MM ELSA 1976-01-21 03:00:00 TS -14.1362 167.819 main 125 125 P_______PPP_P_ SH121976 -14.0899 167.757 -1 -14.1964 168.000 40 990 -14.0899 167.757 TC -14.1175 167.777 2 -14.2172 167.894 TC 40 995 8 76
1976020S18165 1976 7 SP MM ELSA 1976-01-21 06:00:00 TS -14.1069 168.207 main 155 155 O_______POP_O_ jtwc_sh SH121976 -14.0000 168.100 -1 -14.2237 168.450 40 990 -14.0000 168.100 TC -14.0400 168.145 2 -14.3000 168.300 TC 40 995 8 92
1976020S18165 1976 7 SP MM ELSA 1976-01-21 09:00:00 TS -14.1603 168.596 main 184 184 P_______PPP_P_ SH121976 -14.0325 168.457 -1 -14.3141 168.800 40 990 -14.0325 168.457 TC -14.0675 168.490 2 -14.3551 168.775 TC 40 995 7 108
1976020S18165 1976 7 SP MM ELSA 1976-01-21 12:00:00 TS -14.3200 168.900 40 990 wellington main 208 205 O_______OOO_O_ jtwc_sh SH121976 -14.2000 168.800 -1 -14.5000 169.000 40 990 -14.2000 168.800 TC -14.2000 168.800 2 -14.5000 169.100 TC 40 995 7 130
1976020S18165 1976 7 SP MM ELSA 1976-01-21 15:00:00 TS -14.5785 169.107 main 219 216 P_______PPP_P_ SH121976 -14.4625 169.130 -1 -14.8007 169.019 40 990 -14.4625 169.130 TC -14.4121 169.125 2 -14.7549 169.133 TC 40 995 7 153
1976020S18165 1976 7 SP MM ELSA 1976-01-21 18:00:00 TS -14.9209 169.221 main 216 195 O_______POP_O_ jtwc_sh SH121976 -14.8000 169.400 -1 -15.1823 168.901 40 990 -14.8000 169.400 TC -14.7224 169.406 2 -15.1000 169.000 TC 40 995 7 167
1976020S18165 1976 7 SP MM ELSA 1976-01-21 21:00:00 TS -15.2928 169.279 main 195 173 P_______PPP_P_ SH121976 -15.1350 169.610 -1 -15.5978 168.707 40 990 -15.1350 169.610 TC -15.0965 169.609 2 -15.5000 168.858 TC 40 995 8 177
1976020S18165 1976 7 SP MM ELSA 1976-01-22 00:00:00 TS -15.6800 169.260 40 990 wellington main 173 153 O_______OOO_O_ jtwc_sh SH121976 -15.5000 169.700 -1 -16.0000 168.500 40 990 -15.5000 169.700 TC -15.5000 169.700 2 -15.9000 168.700 TC 40 995 8 186
1976020S18165 1976 7 SP MM ELSA 1976-01-22 03:00:00 TS -16.0391 169.194 main 153 138 P_______PPP_P_ SH121976 -15.8924 169.660 -1 -16.3053 168.375 40 990 -15.8924 169.660 TC -15.8903 169.673 2 -16.2150 168.600 TC 40 995 7 195
1976020S18165 1976 7 SP MM ELSA 1976-01-22 06:00:00 TS -16.3984 169.056 main 138 117 O_______POP_O_ jtwc_sh SH121976 -16.3000 169.500 -1 -16.5925 168.250 40 990 -16.3000 169.500 TC -16.2996 169.530 2 -16.5000 168.500 TC 40 995 8 203
1976020S18165 1976 7 SP MM ELSA 1976-01-22 09:00:00 TS -16.7585 168.869 main 119 105 P_______PPP_P_ SH121976 -16.7075 169.287 -1 -16.8834 168.125 40 990 -16.7075 169.287 TC -16.7091 169.298 2 -16.7850 168.350 TC 40 995 8 209
1976020S18165 1976 7 SP MM ELSA 1976-01-22 12:00:00 TS -17.1200 168.640 40 990 wellington main 101 101 O_______OOO_O_ jtwc_sh SH121976 -17.1000 169.000 -1 -17.2000 168.000 40 990 -17.1000 169.000 TC -17.1000 169.000 2 -17.1000 168.200 TC 40 995 9 211
1976020S18165 1976 7 SP MM ELSA 1976-01-22 15:00:00 TS -17.4880 168.415 main 119 119 P_______PPP_P_ SH121976 -17.4650 168.672 -1 -17.5872 167.915 43 987 -17.4650 168.672 TC -17.4380 168.722 2 -17.4850 168.092 TC 42 992 9 212
1976020S18165 1976 7 SP MM ELSA 1976-01-22 18:00:00 TS -17.8512 168.162 main 151 148 O_______POP_O_ jtwc_sh SH121976 -17.8000 168.300 -1 -17.9995 167.824 47 985 -17.8000 168.300 TC -17.7567 168.384 2 -17.9000 168.000 TC 45 990 9 215
1976020S18165 1976 7 SP MM ELSA 1976-01-22 21:00:00 TS -18.1967 167.900 main 179 179 P_______PPP_P_ SH121976 -18.0922 167.945 -1 -18.4121 167.696 51 982 -18.0922 167.945 TC -18.0721 167.978 2 -18.3149 167.937 TC 50 987 9 220
1976020S18165 1976 7 SP MM ELSA 1976-01-23 00:00:00 TS -18.5400 167.560 55 980 wellington main 212 212 O_______OOO_O_ jtwc_sh SH121976 -18.4000 167.500 -1 -18.8000 167.500 55 980 -18.4000 167.500 TC -18.4000 167.500 2 -18.7000 167.800 TC 55 985 11 228
1976020S18165 1976 7 SP MM ELSA 1976-01-23 03:00:00 TS -18.9022 167.076 main 260 231 P_______PPP_P_ SH121976 -18.7927 166.880 -1 -19.1364 167.237 55 980 -18.7927 166.880 TC -18.7743 166.887 2 -19.0150 167.495 TC 55 985 12 234
1976020S18165 1976 7 SP MM ELSA 1976-01-23 06:00:00 TS -19.2608 166.523 main 215 158 O_______POP_O_ jtwc_sh SH121976 -19.2000 166.200 -1 -19.4442 166.899 55 980 -19.2000 166.200 TC -19.1598 166.215 2 -19.3000 167.100 TC 55 985 13 236
1976020S18165 1976 7 SP MM ELSA 1976-01-23 09:00:00 TS -19.6015 165.971 main 158 105 P_______PPP_P_ SH121976 -19.5651 165.540 -1 -19.7299 166.487 55 980 -19.5651 165.540 TC -19.5401 165.559 2 -19.6073 166.730 TC 55 985 12 237
1976020S18165 1976 7 SP MM ELSA 1976-01-23 12:00:00 TS -19.9200 165.460 55 980 wellington main 105 53 O_______OOO_O_ jtwc_sh SH121976 -19.9000 165.000 -1 -20.0000 166.000 55 980 -19.9000 165.000 TC -19.9000 165.000 2 -19.9000 166.300 TC 55 985 11 235
1976020S18165 1976 7 SP MM ELSA 1976-01-23 15:00:00 TS -20.2106 165.052 main 53 0 P_______PPP_P_ SH121976 -20.2071 164.697 -1 -20.2657 165.407 55 980 -20.2071 164.697 TC -20.2157 164.673 2 -20.1574 165.787 TC 55 985 9 232
1976020S18165 1976 7 SP MM ELSA 1976-01-23 18:00:00 TS -20.4859 164.679 main 0 0 O_______POP_O_ jtwc_sh SH121976 -20.5000 164.500 -1 -20.5169 164.750 55 980 -20.5000 164.500 TC -20.5127 164.445 2 -20.4000 165.200 TC 55 985 9 232
1976020S18165 1976 7 SP MM ELSA 1976-01-23 21:00:00 TS -20.7626 164.285 main 10 10 P_______PPP_P_ SH121976 -20.7998 164.280 -1 -20.7594 164.094 55 980 -20.7998 164.280 TC -20.8034 164.245 2 -20.6503 164.528 TC 55 985 9 233
1976020S18165 1976 7 SP MM ELSA 1976-01-24 00:00:00 TS -21.0400 163.880 55 980 wellington main 56 56 O_______OOO_O_ jtwc_sh SH121976 -21.1000 164.000 -1 -21.0000 163.500 55 980 -21.1000 164.000 TC -21.1000 164.000 2 -20.9000 163.900 TC 55 985 9 235
1976020S18165 1976 7 SP MM ELSA 1976-01-24 03:00:00 TS -21.3025 163.452 main 108 108 P_______PPP_P_ SH121976 -21.3926 163.580 -1 -21.1878 163.051 55 980 -21.3926 163.580 TC -21.3900 163.587 2 -21.1496 163.462 TC 55 985 10 236
1976020S18165 1976 7 SP MM ELSA 1976-01-24 06:00:00 TS -21.5754 163.019 main 170 170 O_______POP_O_ jtwc_sh SH121976 -21.7000 163.100 -1 -21.3860 162.672 55 980 -21.7000 163.100 TC -21.6909 163.122 2 -21.4000 163.100 TC 55 985 10 235
1976020S18165 1976 7 SP MM ELSA 1976-01-24 09:00:00 TS -21.8660 162.592 main 223 223 P_______PPP_P_ SH121976 -22.0349 162.642 -1 -21.6412 162.332 55 980 -22.0349 162.642 TC -22.0213 162.646 2 -21.5974 162.699 TC 55 985 10 230
1976020S18165 1976 7 SP MM ELSA 1976-01-24 12:00:00 TS -22.2200 162.180 55 980 wellington main 276 276 O_______OOO_O_ jtwc_sh SH121976 -22.4000 162.200 -1 -22.0000 162.000 55 980 -22.4000 162.200 TC -22.4000 162.200 2 -21.9000 162.300 TC 55 985 11 224
1976020S18165 1976 7 SP MM ELSA 1976-01-24 15:00:00 TS -22.6566 161.754 main 342 342 P_______PPP_P_ SH121976 -22.7625 161.770 -1 -22.5378 161.586 51 982 -22.7625 161.770 TC -22.7727 161.752 2 -22.4475 161.893 TC 50 987 12 218
1976020S18165 1976 7 SP MM ELSA 1976-01-24 18:00:00 TS -23.1762 161.366 main 409 409 O_______POP_O_ jtwc_sh SH121976 -23.2000 161.400 -1 -23.1756 161.178 47 985 -23.2000 161.400 TC -23.2053 161.351 2 -23.1000 161.500 TC 45 990 13 212
1976020S18165 1976 7 SP MM ELSA 1976-01-24 21:00:00 TS -23.7471 161.024 main 475 475 P_______PPP_P_ SH121976 -23.7175 161.075 -1 -23.8505 160.805 43 987 -23.7175 161.075 TC -23.7352 161.050 2 -23.7150 161.113 TC 42 992 13 203
1976020S18165 1976 7 SP MM ELSA 1976-01-25 00:00:00 TS -24.4000 160.800 40 990 wellington main 537 537 O_______OOO_O_ jtwc_sh SH121976 -24.4000 160.900 -1 -24.5000 160.500 40 990 -24.4000 160.900 TC -24.4000 160.900 2 -24.3000 160.800 TC 40 995 14 193
1976020S18165 1976 7 SP MM ELSA 1976-01-25 03:00:00 TS -25.1224 160.688 main 595 595 P_______PPP_P_ SH121976 -25.2899 160.910 -1 -24.9513 160.088 40 990 -25.2899 160.910 TC -25.2660 160.913 2 -24.8148 160.619 TC 40 995 15 183
1976020S18165 1976 7 SP MM ELSA 1976-01-25 06:00:00 TS -25.9080 160.713 main 660 660 O_______POP_O_ jtwc_sh SH121976 -26.3000 161.100 -1 -25.3810 159.779 40 990 -26.3000 161.100 TC -26.2590 161.087 2 -25.3000 160.500 TC 40 995 16 176
1976020S18165 1976 7 SP MM ELSA 1976-01-25 09:00:00 TS -26.7088 160.810 main 723 723 P_______PPP_P_ SH121976 -27.3225 161.397 -1 -25.8702 159.704 40 990 -27.3225 161.397 TC -27.2974 161.392 2 -25.7313 160.159 TC 40 995 17 168
1976020S18165 1976 7 SP MM ELSA 1976-01-25 12:00:00 TS -27.5400 161.120 40 990 wellington main 740 739 O_______OOO_O_ jtwc_sh SH121976 -28.3000 161.800 -1 -26.5000 160.000 40 990 -28.3000 161.800 TC -28.3000 161.800 2 -26.3000 160.200 TC 40 995 19 155
1976020S18165 1976 7 SP MM ELSA 1976-01-25 15:00:00 TS -28.3807 161.706 main 790 790 P_______PPP_P_ SH121976 -29.1296 162.206 -1 -27.3428 160.847 40 990 -29.1296 162.206 TC -29.1246 162.117 2 -27.1771 161.152 TC 40 995 21 144
1976020S18165 1976 7 SP MM ELSA 1976-01-25 18:00:00 TS -29.2457 162.504 main 863 863 O_______POP_O_ jtwc_sh SH121976 -29.9000 162.700 -1 -28.3234 162.079 40 990 -29.9000 162.700 TC -29.9054 162.544 2 -28.2000 162.500 TC 40 995 23 140
1976020S18165 1976 7 SP MM ELSA 1976-01-25 21:00:00 TS -30.1235 163.358 main 920 867 P_______PPP_P_ SH121976 -30.6835 163.241 -1 -29.3906 163.522 40 990 -30.6835 163.241 TC -30.6839 163.147 2 -29.1762 163.638 TC 40 995 24 138
1976020S18165 1976 7 SP MM ELSA 1976-01-26 00:00:00 TS -31.0400 164.360 40 990 wellington main 858 715 O_______OOO_O_ jtwc_sh SH121976 -31.5000 164.000 -1 -30.5000 165.000 40 990 -31.5000 164.000 TC -31.5000 164.000 2 -30.2000 164.800 TC 40 995 26 135
1976020S18165 1976 7 SP MM ELSA 1976-01-26 03:00:00 TS -32.0074 165.526 main 715 560 P_______PPP_P_ SH121976 -32.3757 165.038 -1 -31.6207 166.364 40 990 -32.3757 165.038 TC -32.3806 165.155 2 -31.2843 166.037 TC 40 995 29 133
1976020S18165 1976 7 SP MM ELSA 1976-01-26 06:00:00 TS -33.0111 166.859 main 551 407 O_______POP_O_ jtwc_sh SH121976 -33.3000 166.400 -1 -32.7468 167.622 40 990 -33.3000 166.400 TC -33.3087 166.570 2 -32.4000 167.300 TC 40 995 31 131
1976020S18165 1976 7 SP MM ELSA 1976-01-26 09:00:00 TS -34.0284 168.332 main 398 261 P_______PPP_P_ SH121976 -34.2513 168.058 -1 -33.8753 168.819 40 990 -34.2513 168.058 TC -34.2570 168.177 2 -33.5071 168.549 TC 40 995 32 129
1976020S18165 1976 7 SP MM ELSA 1976-01-26 12:00:00 TS -35.0400 169.900 40 990 wellington main 252 O_______OOO_O_ jtwc_sh SH121976 -35.2000 169.900 -1 -35.0000 170.000 40 990 -35.2000 169.900 TC -35.2000 169.900 6 -34.6000 169.800 TC 40 995 33 128

Digital Typhoon Data and Search

About IBTrACS Database

This database is a web-friendly format of International Best Track Archive for Climate Stewardship (IBTrACS), a global best track data archive curated by NOAA dating back to 1842.

Updated: 2021-11-26